Time;durP1;ratioP1;P1;durP2;ratioP2;P2;SDS_P1;SDS_P2;PMS_P1;PMS_P2;Temp;Humidity;BMP_temperature;BMP_pressure;BME280_temperature;BME280_humidity;BME280_pressure;Samples;Min_cycle;Max_cycle;Signal;HPM_P1;HPM_P2
2020/01/24 00:00:35;;;;;;;83.7;44.9;;;;;;;1.13;78.75;969.8139;;;;
2020/01/24 00:04:34;;;;;;;92;45.8;;;;;;;1.02;78.58301;969.7514;;;;
2020/01/24 00:06:59;;;;;;;90.1;46.9;;;;;;;0.87;79.20801;969.7859;;;;
2020/01/24 00:09:24;;;;;;;87.5;45.3;;;;;;;0.81;79.4375;969.7214;;;;
2020/01/24 00:11:49;;;;;;;87;46.7;;;;;;;0.73;79.46777;969.7386;;;;
2020/01/24 00:14:14;;;;;;;89.1;46.5;;;;;;;0.75;79.47168;969.7417;;;;
2020/01/24 00:16:40;;;;;;;84.4;46.5;;;;;;;0.77;79.01465;969.7548;;;;
2020/01/24 00:19:16;;;;;;;88.7;46.7;;;;;;;0.85;78.67578;969.8176;;;;
2020/01/24 00:21:31;;;;;;;88.8;46;;;;;;;0.84;78.84668;969.7617;;;;
2020/01/24 00:23:54;;;;;;;87;46.6;;;;;;;0.9;78.3877;969.7208;;;;
2020/01/24 00:26:20;;;;;;;78.7;44.4;;;;;;;0.73;78.28809;969.6409;;;;
2020/01/24 00:28:45;;;;;;;79.2;44.1;;;;;;;0.63;78.32813;969.6691;;;;
2020/01/24 00:31:10;;;;;;;75.7;43.7;;;;;;;0.61;78.35742;969.57;;;;
2020/01/24 00:33:35;;;;;;;77.8;44.4;;;;;;;0.57;78.47461;969.5461;;;;
2020/01/24 00:36:01;;;;;;;78.3;43.5;;;;;;;0.87;77.52246;969.5617;;;;
2020/01/24 00:38:26;;;;;;;78.4;45.3;;;;;;;0.84;77.60938;969.5119;;;;
2020/01/24 00:40:51;;;;;;;75.9;44.8;;;;;;;0.72;78.14746;969.5698;;;;
2020/01/24 00:43:16;;;;;;;82.1;45.5;;;;;;;0.59;78.39941;969.5464;;;;
2020/01/24 00:45:41;;;;;;;78.3;44.6;;;;;;;0.56;78.71582;969.4822;;;;
2020/01/24 00:48:06;;;;;;;82.7;46.3;;;;;;;0.37;79.12598;969.4123;;;;
2020/01/24 00:50:31;;;;;;;81.5;45.8;;;;;;;0.32;79.29883;969.3641;;;;
2020/01/24 00:52:56;;;;;;;79.9;46.3;;;;;;;0.38;79.24219;969.3175;;;;
2020/01/24 00:55:21;;;;;;;80;45.7;;;;;;;0.52;78.59082;969.3292;;;;
2020/01/24 00:57:47;;;;;;;83.7;46;;;;;;;0.53;78.81152;969.2894;;;;
2020/01/24 01:00:12;;;;;;;82.4;46.3;;;;;;;0.54;78.36719;969.267;;;;
2020/01/24 01:08:49;;;;;;;93.2;48.2;;;;;;;0.29;79.32813;969.2806;;;;
2020/01/24 01:09:53;;;;;;;79.4;45.5;;;;;;;0.31;79.35449;969.2842;;;;
2020/01/24 01:12:19;;;;;;;85.6;48.3;;;;;;;0.28;79.85156;969.3239;;;;
2020/01/24 01:14:43;;;;;;;94;48.5;;;;;;;0.14;80.55664;969.2885;;;;
2020/01/24 01:17:08;;;;;;;86.8;48.9;;;;;;;0.21;80.39844;969.2746;;;;
2020/01/24 01:19:34;;;;;;;89;48.6;;;;;;;0.28;80.11621;969.2703;;;;
2020/01/24 01:21:59;;;;;;;80.9;47.8;;;;;;;0.37;79.68652;969.2866;;;;
2020/01/24 01:24:24;;;;;;;83.1;47.1;;;;;;;0.48;79.4082;969.3929;;;;
2020/01/24 01:26:49;;;;;;;84.5;47.9;;;;;;;0.62;79.02246;969.4346;;;;
2020/01/24 01:29:20;;;;;;;85.8;46.4;;;;;;;0.61;78.49414;969.4196;;;;
2020/01/24 01:31:45;;;;;;;80.8;46.2;;;;;;;0.7;78.46484;969.4534;;;;
2020/01/24 01:34:10;;;;;;;85.1;46.3;;;;;;;0.7;78.24707;969.4286;;;;
2020/01/24 01:36:35;;;;;;;84.7;46.4;;;;;;;0.71;77.99902;969.4277;;;;
2020/01/24 01:39:00;;;;;;;84.9;47.3;;;;;;;0.69;77.95996;969.4255;;;;
2020/01/24 01:41:26;;;;;;;82.6;47.2;;;;;;;0.62;78.18652;969.3819;;;;
2020/01/24 01:43:57;;;;;;;84.4;46.9;;;;;;;0.7;78.09863;969.3469;;;;
2020/01/24 01:46:23;;;;;;;82.8;46.5;;;;;;;0.73;78.16211;969.3552;;;;
2020/01/24 01:48:49;;;;;;;82.5;46.1;;;;;;;0.8;77.88867;969.3747;;;;
2020/01/24 01:51:12;;;;;;;78.6;44.7;;;;;;;0.87;77.59082;969.4007;;;;
2020/01/24 01:53:37;;;;;;;83.7;46.5;;;;;;;0.85;77.42773;969.2996;;;;
2020/01/24 01:56:02;;;;;;;78.4;44.5;;;;;;;0.96;76.9082;969.2976;;;;
2020/01/24 01:58:27;;;;;;;91.1;47.5;;;;;;;0.62;77.94629;969.2537;;;;
2020/01/24 02:00:52;;;;;;;81.6;44.8;;;;;;;0.76;77.7666;969.1873;;;;
2020/01/24 02:03:18;;;;;;;82.5;45.7;;;;;;;0.78;77.76953;969.1671;;;;
2020/01/24 02:05:43;;;;;;;83.2;45.3;;;;;;;0.82;77.3291;969.1063;;;;
2020/01/24 02:08:08;;;;;;;83.1;45.8;;;;;;;0.85;77.3584;969.0673;;;;
2020/01/24 02:12:24;;;;;;;81.3;44.7;;;;;;;0.85;77.11816;969.0305;;;;
2020/01/24 02:14:49;;;;;;;84.1;46.6;;;;;;;0.86;77.31445;968.9927;;;;
2020/01/24 02:17:14;;;;;;;83.1;45.9;;;;;;;0.82;77.35254;968.9133;;;;
2020/01/24 02:19:39;;;;;;;86.8;46.4;;;;;;;0.7;77.8125;968.937;;;;
2020/01/24 02:22:08;;;;;;;80;45.6;;;;;;;0.62;78.0498;968.8928;;;;
2020/01/24 02:24:33;;;;;;;77.1;44.8;;;;;;;0.63;77.9502;968.8669;;;;
2020/01/24 02:29:20;;;;;;;79.5;45;;;;;;;0.67;77.97949;968.8591;;;;
2020/01/24 02:31:45;;;;;;;81.4;44.6;;;;;;;0.67;77.62402;968.8159;;;;
2020/01/24 02:34:10;;;;;;;76.3;43.3;;;;;;;0.65;77.92969;968.7992;;;;
2020/01/24 02:36:35;;;;;;;74.7;43.2;;;;;;;0.58;77.95117;968.7389;;;;
2020/01/24 02:39:00;;;;;;;78.3;43.9;;;;;;;0.63;77.79785;968.6981;;;;
2020/01/24 02:41:25;;;;;;;73.4;42.7;;;;;;;0.65;77.83887;968.6407;;;;
2020/01/24 02:43:50;;;;;;;68.9;40.9;;;;;;;0.75;77.66016;968.6552;;;;
2020/01/24 02:46:15;;;;;;;74.9;43.5;;;;;;;0.69;77.84473;968.6064;;;;
2020/01/24 02:48:40;;;;;;;76.3;43.7;;;;;;;0.56;78.07422;968.6456;;;;
2020/01/24 02:51:06;;;;;;;73.1;43.3;;;;;;;0.72;77.59961;968.5801;;;;
2020/01/24 02:53:31;;;;;;;70.7;42.2;;;;;;;0.7;77.97266;968.5735;;;;
2020/01/24 02:55:56;;;;;;;74.9;43.3;;;;;;;0.65;77.92871;968.5486;;;;
2020/01/24 02:58:21;;;;;;;73.6;43.5;;;;;;;0.7;77.8125;968.4927;;;;
2020/01/24 03:00:46;;;;;;;69.1;42.4;;;;;;;0.76;77.52539;968.5154;;;;
2020/01/24 03:03:11;;;;;;;72.1;42.9;;;;;;;0.83;77.1709;968.5065;;;;
2020/01/24 03:05:57;;;;;;;69.9;42;;;;;;;0.8;77.04102;968.5123;;;;
2020/01/24 03:08:22;;;;;;;71.4;42.2;;;;;;;0.69;77.67285;968.5511;;;;
2020/01/24 03:10:47;;;;;;;66;41.1;;;;;;;0.65;77.72363;968.4934;;;;
2020/01/24 03:13:12;;;;;;;70.9;41.1;;;;;;;0.77;77.49316;968.5626;;;;
2020/01/24 03:15:37;;;;;;;67.5;41.6;;;;;;;0.81;77.41895;968.5627;;;;
2020/01/24 03:18:03;;;;;;;67.8;41.7;;;;;;;0.76;77.36523;968.57;;;;
2020/01/24 03:20:28;;;;;;;67.7;40.6;;;;;;;0.81;77.35254;968.5403;;;;
2020/01/24 03:22:53;;;;;;;68.6;41.5;;;;;;;0.79;77.53027;968.5184;;;;
2020/01/24 03:25:18;;;;;;;67;40.6;;;;;;;0.91;76.93457;968.5334;;;;
2020/01/24 03:27:43;;;;;;;69.5;43.1;;;;;;;0.87;76.83594;968.4789;;;;
2020/01/24 03:34:59;;;;;;;68.7;41.6;;;;;;;0.9;77;968.445;;;;
2020/01/24 03:37:25;;;;;;;64.1;39.6;;;;;;;0.99;76.59375;968.4295;;;;
2020/01/24 03:39:50;;;;;;;63.6;40.1;;;;;;;0.95;76.98828;968.4439;;;;
2020/01/24 03:42:15;;;;;;;61.3;39.2;;;;;;;1.05;76.84375;968.4326;;;;
2020/01/24 03:44:40;;;;;;;65;40.5;;;;;;;1.02;76.72461;968.4269;;;;
2020/01/24 03:47:05;;;;;;;62.9;40.3;;;;;;;0.99;76.77734;968.4559;;;;
2020/01/24 03:49:31;;;;;;;65.7;39.2;;;;;;;1.03;76.56738;968.4608;;;;
2020/01/24 03:51:55;;;;;;;64.7;40.3;;;;;;;1.03;76.55371;968.4344;;;;
2020/01/24 03:54:20;;;;;;;64;41.3;;;;;;;0.98;76.79785;968.424;;;;
2020/01/24 03:56:45;;;;;;;62.1;38.4;;;;;;;0.98;76.80957;968.4408;;;;
2020/01/24 03:59:10;;;;;;;62.6;39.9;;;;;;;1.01;76.76855;968.4084;;;;
2020/01/24 04:02:26;;;;;;;63;39.9;;;;;;;0.98;77.01563;968.4276;;;;
2020/01/24 04:04:51;;;;;;;66.1;40.1;;;;;;;0.92;76.90137;968.3812;;;;
2020/01/24 04:07:16;;;;;;;67.3;42;;;;;;;0.9;77.03418;968.3794;;;;
2020/01/24 04:09:41;;;;;;;64.9;40.7;;;;;;;0.78;77.62207;968.3575;;;;
2020/01/24 04:12:06;;;;;;;63.2;39.6;;;;;;;0.78;77.54199;968.2991;;;;
2020/01/24 04:14:31;;;;;;;61.4;38.7;;;;;;;0.93;77.07715;968.2938;;;;
2020/01/24 04:17:16;;;;;;;66.1;41.1;;;;;;;0.88;77.26172;968.2642;;;;
2020/01/24 04:19:28;;;;;;;67;39.9;;;;;;;0.8;77.53223;968.1953;;;;
2020/01/24 04:21:47;;;;;;;67;41.2;;;;;;;0.92;77.18945;968.2131;;;;
2020/01/24 04:24:12;;;;;;;67.4;40.8;;;;;;;0.84;77.58594;968.1865;;;;
2020/01/24 04:26:37;;;;;;;63.3;39.7;;;;;;;0.83;77.45801;968.1998;;;;
2020/01/24 04:29:02;;;;;;;68.3;40.2;;;;;;;0.92;77.18848;968.1827;;;;
2020/01/24 04:31:27;;;;;;;64.6;39;;;;;;;0.94;76.98633;968.1375;;;;
2020/01/24 04:33:52;;;;;;;62.7;38.7;;;;;;;0.82;77.16895;968.115;;;;
2020/01/24 04:36:17;;;;;;;67.1;39.7;;;;;;;0.83;77.41113;968.1653;;;;
2020/01/24 04:38:42;;;;;;;61.6;39.5;;;;;;;0.88;77.11133;968.101;;;;
2020/01/24 04:41:07;;;;;;;65.3;40.5;;;;;;;0.9;77.12598;968.1664;;;;
2020/01/24 04:43:33;;;;;;;64;39;;;;;;;0.87;77.08887;968.1442;;;;
2020/01/24 04:46:00;;;;;;;63.8;39.5;;;;;;;0.75;77.40918;968.1116;;;;
2020/01/24 04:48:24;;;;;;;60.9;37.2;;;;;;;0.84;77.3457;968.1144;;;;
2020/01/24 04:50:48;;;;;;;60;38.3;;;;;;;0.91;76.7627;968.1242;;;;
2020/01/24 04:53:13;;;;;;;59.4;36.9;;;;;;;0.91;76.53516;968.1611;;;;
2020/01/24 04:55:38;;;;;;;64.3;41.3;;;;;;;0.81;76.59473;968.1351;;;;
2020/01/24 04:58:03;;;;;;;60.7;38.5;;;;;;;0.86;76.39746;968.1142;;;;
2020/01/24 05:00:28;;;;;;;59.7;38;;;;;;;0.86;76.375;968.1534;;;;
2020/01/24 05:02:53;;;;;;;60;38;;;;;;;0.82;76.42383;968.1663;;;;
2020/01/24 05:05:18;;;;;;;58.7;37.5;;;;;;;0.8;76.45703;968.1744;;;;
2020/01/24 05:07:43;;;;;;;63.2;38.3;;;;;;;0.83;76.25391;968.1894;;;;
2020/01/24 05:10:09;;;;;;;58.7;37.7;;;;;;;0.77;76.36914;968.2432;;;;
2020/01/24 05:12:34;;;;;;;58.8;38;;;;;;;0.77;76.2334;968.2239;;;;
2020/01/24 05:14:59;;;;;;;61.8;38.5;;;;;;;0.69;76.27637;968.2846;;;;
2020/01/24 05:17:24;;;;;;;59.9;37.1;;;;;;;0.66;76.23633;968.3212;;;;
2020/01/24 05:19:49;;;;;;;62.5;39.4;;;;;;;0.69;76.35742;968.2862;;;;
2020/01/24 05:22:14;;;;;;;60.9;37.8;;;;;;;0.68;76.55859;968.3114;;;;
2020/01/24 05:24:40;;;;;;;59.2;37.5;;;;;;;0.65;76.41699;968.2686;;;;
2020/01/24 05:27:06;;;;;;;60.9;38.4;;;;;;;0.62;76.30859;968.2731;;;;
2020/01/24 05:29:33;;;;;;;68.3;42.2;;;;;;;0.62;76.8584;968.3044;;;;
2020/01/24 05:32:04;;;;;;;63;39.2;;;;;;;0.61;76.61621;968.2836;;;;
2020/01/24 05:34:37;;;;;;;60.5;37.6;;;;;;;0.58;76.63477;968.2866;;;;
2020/01/24 05:36:46;;;;;;;59.1;38.2;;;;;;;0.57;76.62012;968.3195;;;;
2020/01/24 05:39:11;;;;;;;59.5;37.9;;;;;;;0.48;76.93652;968.3084;;;;
2020/01/24 05:41:40;;;;;;;60;36.9;;;;;;;0.49;76.85742;968.2817;;;;
2020/01/24 05:44:04;;;;;;;56.3;36.8;;;;;;;0.55;76.36523;968.2809;;;;
2020/01/24 05:46:39;;;;;;;64.6;39.8;;;;;;;0.61;75.91797;968.3309;;;;
2020/01/24 05:48:54;;;;;;;60.5;37.3;;;;;;;0.54;75.79102;968.3098;;;;
2020/01/24 05:51:21;;;;;;;55.2;35.5;;;;;;;0.33;76.38086;968.3152;;;;
2020/01/24 05:53:44;;;;;;;54.3;35.1;;;;;;;0.15;77.15137;968.3058;;;;
2020/01/24 05:56:09;;;;;;;52.9;34.8;;;;;;;0.19;77.26074;968.3787;;;;
2020/01/24 05:58:34;;;;;;;59.5;36.5;;;;;;;-0.1;77.99805;968.3466;;;;
2020/01/24 06:01:01;;;;;;;55.1;35;;;;;;;-0.15;78.61523;968.3915;;;;
2020/01/24 06:05:26;;;;;;;52.7;33.3;;;;;;;-0.12;78.01563;968.4734;;;;
2020/01/24 06:07:51;;;;;;;54.9;34.2;;;;;;;-0.45;78.57129;968.5182;;;;
2020/01/24 06:10:16;;;;;;;58;36.1;;;;;;;-0.81;79.3252;968.4986;;;;
2020/01/24 06:12:41;;;;;;;57.3;34.6;;;;;;;-0.97;79.90137;968.55;;;;
2020/01/24 06:15:06;;;;;;;49.2;33.4;;;;;;;-0.78;79.49219;968.6219;;;;
2020/01/24 06:17:31;;;;;;;58.5;35.5;;;;;;;-0.92;79.2373;968.6764;;;;
2020/01/24 06:19:57;;;;;;;55.5;33.8;;;;;;;-0.94;79.00391;968.6649;;;;
2020/01/24 06:22:22;;;;;;;52.7;33.2;;;;;;;-1.14;79.83398;968.6199;;;;
2020/01/24 06:24:47;;;;;;;49.4;32.4;;;;;;;-0.97;79.0332;968.6314;;;;
2020/01/24 06:27:12;;;;;;;46.6;30.4;;;;;;;-0.73;77.97168;968.6686;;;;
2020/01/24 06:29:37;;;;;;;45.3;30.9;;;;;;;-0.62;77.375;968.6872;;;;
2020/01/24 06:32:02;;;;;;;47.9;30.3;;;;;;;-0.74;76.86328;968.6686;;;;
2020/01/24 06:34:28;;;;;;;45.9;29.8;;;;;;;-0.5;81.48633;968.6961;;;;
2020/01/24 06:36:53;;;;;;;43.2;29.4;;;;;;;-0.49;77.69629;968.7192;;;;
2020/01/24 06:39:18;;;;;;;43.6;29.6;;;;;;;-0.51;76.50488;968.6994;;;;
2020/01/24 06:41:43;;;;;;;46.2;29.8;;;;;;;-0.51;76.59668;968.6434;;;;
2020/01/24 06:44:08;;;;;;;45.4;28.2;;;;;;;-0.52;75.81836;968.6906;;;;
2020/01/24 06:46:33;;;;;;;44.2;29.7;;;;;;;-0.54;76.21387;968.7333;;;;
2020/01/24 06:48:58;;;;;;;44.6;30.4;;;;;;;-0.64;76.58398;968.7088;;;;
2020/01/24 06:53:54;;;;;;;43.9;29.5;;;;;;;-0.58;75.80762;968.7802;;;;
2020/01/24 06:56:13;;;;;;;43.4;29.1;;;;;;;-0.45;75.36133;968.8058;;;;
2020/01/24 06:58:38;;;;;;;44.1;29.3;;;;;;;-0.51;75.38574;968.7576;;;;
2020/01/24 07:01:03;;;;;;;41.9;28.8;;;;;;;-0.43;75.43457;968.8022;;;;
2020/01/24 07:03:29;;;;;;;41;28.5;;;;;;;-0.45;75.08691;968.8007;;;;
2020/01/24 07:05:54;;;;;;;42;28.4;;;;;;;-0.44;75.11328;968.8006;;;;
2020/01/24 07:08:19;;;;;;;42.3;29.4;;;;;;;-0.72;75.90625;968.8627;;;;
2020/01/24 07:10:44;;;;;;;40.7;28.1;;;;;;;-0.47;75.34668;968.8499;;;;
2020/01/24 07:13:09;;;;;;;43.1;29.8;;;;;;;-0.3;74.51953;968.9061;;;;
2020/01/24 07:15:34;;;;;;;41.7;27.5;;;;;;;-0.1;74.87598;968.9055;;;;
2020/01/24 07:18:00;;;;;;;38.1;25.6;;;;;;;0.3;73.23145;968.9021;;;;
2020/01/24 07:20:25;;;;;;;37.2;26;;;;;;;0.57;71.03223;968.9623;;;;
2020/01/24 07:22:50;;;;;;;37.4;26.6;;;;;;;0.69;70.09277;968.933;;;;
2020/01/24 07:25:15;;;;;;;37.7;26.6;;;;;;;0.81;69.55078;968.9503;;;;
2020/01/24 07:27:40;;;;;;;37.3;26.5;;;;;;;0.91;69.05176;968.9187;;;;
2020/01/24 07:30:05;;;;;;;36.1;26.7;;;;;;;0.97;69.00391;968.9235;;;;
2020/01/24 07:32:30;;;;;;;37.6;26.3;;;;;;;1.16;69.67578;968.9135;;;;
2020/01/24 07:34:56;;;;;;;36.2;26.6;;;;;;;1.24;68.14063;968.908;;;;
2020/01/24 07:37:21;;;;;;;37.5;26.5;;;;;;;1.4;67.58105;968.927;;;;
2020/01/24 07:39:46;;;;;;;38.2;26.2;;;;;;;1.35;67.5625;968.9042;;;;
2020/01/24 07:42:11;;;;;;;35.4;26.3;;;;;;;1.43;67.08203;968.9667;;;;
2020/01/24 07:44:36;;;;;;;37;26.6;;;;;;;1.8;66.02637;969.0136;;;;
2020/01/24 07:47:01;;;;;;;36.4;26.1;;;;;;;2.47;63.63477;968.9685;;;;
2020/01/24 07:49:26;;;;;;;36.6;26.3;;;;;;;2.71;62.48535;968.9853;;;;
2020/01/24 07:51:51;;;;;;;35.9;25.7;;;;;;;3.19;61.35742;968.9229;;;;
2020/01/24 07:54:16;;;;;;;36.6;26.4;;;;;;;3.69;59.16992;968.9241;;;;
2020/01/24 07:56:41;;;;;;;37.5;25.9;;;;;;;4.06;57.79004;968.9026;;;;
2020/01/24 07:59:07;;;;;;;37.7;26.9;;;;;;;3.79;58.11035;968.9445;;;;
2020/01/24 08:01:32;;;;;;;35.4;25;;;;;;;3.3;60.36035;968.9205;;;;
2020/01/24 08:03:57;;;;;;;36.3;25.9;;;;;;;3.77;58.94043;968.9009;;;;
2020/01/24 08:06:22;;;;;;;37;26.2;;;;;;;4.08;57.97656;968.9052;;;;
2020/01/24 08:08:48;;;;;;;34.7;24.3;;;;;;;4.39;57.2002;968.8956;;;;
2020/01/24 08:11:19;;;;;;;36.2;24.9;;;;;;;4.27;57.46094;968.9661;;;;
2020/01/24 08:13:38;;;;;;;34.1;24.8;;;;;;;4.38;57.19727;968.8865;;;;
2020/01/24 08:16:03;;;;;;;33.4;24.6;;;;;;;4.59;56.93652;968.9094;;;;
2020/01/24 08:18:28;;;;;;;36.4;25.7;;;;;;;4.95;55.81641;968.8802;;;;
2020/01/24 08:20:53;;;;;;;34.7;25.3;;;;;;;4.59;56.61328;968.8786;;;;
2020/01/24 08:23:26;;;;;;;37.6;26.2;;;;;;;4.8;55.77344;968.8694;;;;
2020/01/24 08:25:51;;;;;;;71.7;40.7;;;;;;;4.42;57.30762;968.8752;;;;
2020/01/24 08:28:16;;;;;;;55.4;35.1;;;;;;;4.86;56.10547;968.8883;;;;
2020/01/24 08:30:41;;;;;;;37.9;26.4;;;;;;;5.28;54.2041;968.8886;;;;
2020/01/24 08:33:07;;;;;;;34.7;24.8;;;;;;;6.47;51.49902;968.8892;;;;
2020/01/24 08:35:32;;;;;;;34.1;24.6;;;;;;;7.11;49.55371;968.8934;;;;
2020/01/24 08:37:57;;;;;;;34;25.1;;;;;;;8.9;44.7041;968.9194;;;;
2020/01/24 08:40:22;;;;;;;32.5;24;;;;;;;11.07;39.99023;968.8982;;;;
2020/01/24 08:42:47;;;;;;;31.6;24.3;;;;;;;11.97;37.89746;968.8666;;;;
2020/01/24 08:45:12;;;;;;;32.2;24.2;;;;;;;13.31;34.68848;968.8369;;;;
2020/01/24 08:47:37;;;;;;;30.1;23.4;;;;;;;14.2;33.1748;968.9167;;;;
2020/01/24 08:50:02;;;;;;;29.6;23.7;;;;;;;14.52;32.37207;968.9376;;;;
2020/01/24 08:52:27;;;;;;;33.1;24;;;;;;;14.88;31.52246;968.907;;;;
2020/01/24 08:54:53;;;;;;;32.2;23.8;;;;;;;15.23;30.86133;968.8691;;;;
2020/01/24 08:57:18;;;;;;;31.7;23.9;;;;;;;15.51;30.35938;968.8967;;;;
2020/01/24 08:59:43;;;;;;;31.7;23.8;;;;;;;16.04;29.49414;968.88;;;;
2020/01/24 09:02:08;;;;;;;34.5;25;;;;;;;16.4;29.06641;968.8583;;;;
2020/01/24 09:04:33;;;;;;;30.9;23.8;;;;;;;16.56;28.49512;968.8849;;;;
2020/01/24 09:06:58;;;;;;;31.6;24;;;;;;;16.12;28.92969;968.878;;;;
2020/01/24 09:09:23;;;;;;;32.8;24.8;;;;;;;16.6;28.27148;968.882;;;;
2020/01/24 09:11:48;;;;;;;33.1;23.8;;;;;;;16.96;27.96191;968.827;;;;
2020/01/24 09:14:13;;;;;;;29.6;21.9;;;;;;;17;28.35742;968.8105;;;;
2020/01/24 09:19:03;;;;;;;31.8;23.1;;;;;;;12.57;35.04102;968.6241;;;;
2020/01/24 09:21:28;;;;;;;34.7;25.9;;;;;;;10.58;38.97266;968.687;;;;
2020/01/24 09:23:54;;;;;;;35.7;26.1;;;;;;;9.06;43.44824;968.7014;;;;
2020/01/24 09:26:19;;;;;;;33.2;25.7;;;;;;;8.2;45.86719;968.6941;;;;
2020/01/24 09:28:44;;;;;;;38;27.3;;;;;;;6.73;49.84668;968.6781;;;;
2020/01/24 09:31:09;;;;;;;37.3;26.4;;;;;;;6.26;51.77734;968.7512;;;;
2020/01/24 09:33:34;;;;;;;38.8;27.8;;;;;;;6.05;52.86328;968.7464;;;;
2020/01/24 09:35:59;;;;;;;36.2;25.7;;;;;;;6.18;52.76367;968.7559;;;;
2020/01/24 09:38:24;;;;;;;39.1;27.1;;;;;;;6.09;53.25195;968.757;;;;
2020/01/24 09:40:49;;;;;;;39.1;26.8;;;;;;;5.89;53.67871;968.7531;;;;
2020/01/24 09:43:14;;;;;;;39.2;28.1;;;;;;;5.96;54.05859;968.7839;;;;
2020/01/24 09:45:40;;;;;;;36.7;27.3;;;;;;;5.81;54.88574;968.8078;;;;
2020/01/24 09:48:05;;;;;;;41;28.8;;;;;;;5.09;57.0498;968.8039;;;;
2020/01/24 09:50:30;;;;;;;39.3;28.2;;;;;;;4.96;57.7959;968.7633;;;;
2020/01/24 09:52:55;;;;;;;40.3;28.6;;;;;;;5.15;57.54395;968.8081;;;;
2020/01/24 09:55:20;;;;;;;39.3;27.8;;;;;;;4.72;58.83887;968.8306;;;;
2020/01/24 09:57:45;;;;;;;37.3;27.1;;;;;;;5.02;58.2334;968.7665;;;;
2020/01/24 10:00:11;;;;;;;40.9;27.8;;;;;;;5.39;57.35645;968.8103;;;;
2020/01/24 10:02:36;;;;;;;39.8;28.1;;;;;;;5.02;58.43066;968.7307;;;;
2020/01/24 10:05:01;;;;;;;38;27.5;;;;;;;5.42;57.95215;968.7131;;;;
2020/01/24 10:07:37;;;;;;;40.8;27.1;;;;;;;5.65;57.42676;968.6943;;;;
2020/01/24 10:11:11;;;;;;;36.1;26.6;;;;;;;5.8;56.50684;968.6847;;;;
2020/01/24 10:13:36;;;;;;;42.1;27.9;;;;;;;5.41;57.76563;968.6553;;;;
2020/01/24 10:16:01;;;;;;;36.1;26.5;;;;;;;5.51;57.90527;968.6672;;;;
2020/01/24 10:18:27;;;;;;;39.5;27.5;;;;;;;5.23;58.74707;968.6658;;;;
2020/01/24 10:20:52;;;;;;;38.4;28;;;;;;;5.33;58.86523;968.6501;;;;
2020/01/24 10:23:17;;;;;;;39;26.4;;;;;;;5.33;58.67969;968.6267;;;;
2020/01/24 10:25:42;;;;;;;38.1;27.5;;;;;;;5.44;58.5332;968.6548;;;;
2020/01/24 10:28:07;;;;;;;39.6;26.4;;;;;;;5.61;58.27637;968.6652;;;;
2020/01/24 10:30:32;;;;;;;41;26.7;;;;;;;5.93;57.91699;968.6;;;;
2020/01/24 10:32:57;;;;;;;38.3;26.7;;;;;;;6.07;57.2168;968.6311;;;;
2020/01/24 10:35:22;;;;;;;39.6;26.2;;;;;;;6.32;56.53027;968.5759;;;;
2020/01/24 10:37:47;;;;;;;36.5;25.8;;;;;;;6.32;56.61133;968.5427;;;;
2020/01/24 10:40:12;;;;;;;39.2;26.9;;;;;;;6.45;56.19922;968.5165;;;;
2020/01/24 10:42:37;;;;;;;38;26.1;;;;;;;6.25;56.34766;968.5042;;;;
2020/01/24 10:45:02;;;;;;;34.5;25.3;;;;;;;6.31;56.62207;968.425;;;;
2020/01/24 10:47:27;;;;;;;37.7;25.5;;;;;;;6.31;56.93457;968.4348;;;;
2020/01/24 10:49:52;;;;;;;37;26;;;;;;;6.17;57.35742;968.3816;;;;
2020/01/24 10:52:17;;;;;;;36.7;25.8;;;;;;;6.28;57.47656;968.4085;;;;
2020/01/24 10:54:43;;;;;;;35.6;24.7;;;;;;;6.54;56.41992;968.4092;;;;
2020/01/24 10:57:08;;;;;;;40.5;25.2;;;;;;;6.73;56.17773;968.3488;;;;
2020/01/24 10:59:33;;;;;;;32.6;24.2;;;;;;;6.91;56.07422;968.2578;;;;
2020/01/24 11:02:00;;;;;;;36.4;24.7;;;;;;;6.78;55.69727;968.2562;;;;
2020/01/24 11:04:23;;;;;;;37.2;25.2;;;;;;;6.58;56.7959;968.2511;;;;
2020/01/24 11:06:48;;;;;;;37.9;25.6;;;;;;;6.39;57.69922;968.2338;;;;
2020/01/24 11:09:13;;;;;;;37.4;25;;;;;;;6.5;57.14648;968.1951;;;;
2020/01/24 11:11:38;;;;;;;38.3;24.3;;;;;;;6.52;57.72949;968.1653;;;;
2020/01/24 11:14:03;;;;;;;43.6;25.3;;;;;;;6.75;57.37695;968.0938;;;;
2020/01/24 11:16:28;;;;;;;37;24.3;;;;;;;6.95;56.78809;968.0734;;;;
2020/01/24 11:18:53;;;;;;;33.2;23.3;;;;;;;7.04;56.49609;968.0415;;;;
2020/01/24 11:21:19;;;;;;;36.3;24.6;;;;;;;7.28;56.12109;967.9961;;;;
2020/01/24 11:23:44;;;;;;;38.3;24.3;;;;;;;7.3;55.49707;967.9473;;;;
2020/01/24 11:26:09;;;;;;;33;23.4;;;;;;;7.44;55.35059;967.9997;;;;
2020/01/24 11:28:34;;;;;;;38.6;24.4;;;;;;;7.7;55.06934;967.9772;;;;
2020/01/24 11:33:24;;;;;;;33.7;23.4;;;;;;;7.69;54.42871;967.9063;;;;
2020/01/24 11:35:49;;;;;;;36.6;23.6;;;;;;;7.8;54.80469;967.9123;;;;
2020/01/24 11:38:14;;;;;;;38.9;22.2;;;;;;;7.86;54.98633;967.8414;;;;
2020/01/24 11:40:39;;;;;;;43.2;23.1;;;;;;;7.83;55.48242;967.7676;;;;
2020/01/24 11:43:04;;;;;;;33.5;23.1;;;;;;;7.84;55.33301;967.7144;;;;
2020/01/24 11:45:38;;;;;;;31.1;22.2;;;;;;;7.95;55.33594;967.7383;;;;
2020/01/24 11:48:03;;;;;;;33.6;23;;;;;;;7.89;55.14063;967.7519;;;;
2020/01/24 11:50:42;;;;;;;32.6;22.2;;;;;;;7.5;55.52148;967.7473;;;;
2020/01/24 11:53:11;;;;;;;33.3;22.7;;;;;;;7.71;55.52539;967.6857;;;;
2020/01/24 11:55:47;;;;;;;35.5;22;;;;;;;7.81;55.86426;967.5994;;;;
2020/01/24 11:58:12;;;;;;;36.4;22.2;;;;;;;8.15;55.37305;967.5628;;;;
2020/01/24 12:00:50;;;;;;;33.9;22;;;;;;;8.29;54.45801;967.5989;;;;
2020/01/24 12:03:03;;;;;;;33.1;21;;;;;;;8.45;54.09473;967.5245;;;;
2020/01/24 12:05:42;;;;;;;32.2;20.7;;;;;;;8.78;53.42383;967.4981;;;;
2020/01/24 12:09:43;;;;;;;30.8;21.5;;;;;;;8.61;53.22754;967.4133;;;;
2020/01/24 12:12:14;;;;;;;33.3;22.4;;;;;;;8.76;52.97754;967.3865;;;;
2020/01/24 12:14:58;;;;;;;34.3;23.1;;;;;;;8.7;53.38965;967.3392;;;;
2020/01/24 12:17:40;;;;;;;35.8;24;;;;;;;8.49;53.98242;967.2578;;;;
2020/01/24 12:20:05;;;;;;;33.4;23.9;;;;;;;8.28;54.71387;967.257;;;;
2020/01/24 12:22:31;;;;;;;34.1;24.3;;;;;;;8.09;55.23633;967.248;;;;
2020/01/24 12:24:56;;;;;;;35.5;23.9;;;;;;;7.94;55.3457;967.2537;;;;
2020/01/24 12:27:22;;;;;;;35;23.2;;;;;;;7.92;55.5752;967.2313;;;;
2020/01/24 12:29:47;;;;;;;33.6;23.1;;;;;;;7.98;55.62988;967.207;;;;
2020/01/24 12:32:12;;;;;;;33.7;22.7;;;;;;;7.67;56.42773;967.149;;;;
2020/01/24 12:34:37;;;;;;;33;22.9;;;;;;;8.1;56.04199;967.1259;;;;
2020/01/24 12:37:02;;;;;;;35.5;23.4;;;;;;;8.35;55.24609;967.0474;;;;
2020/01/24 12:39:27;;;;;;;35.7;23.4;;;;;;;8.44;54.50098;966.9639;;;;
2020/01/24 12:42:01;;;;;;;35.7;23.3;;;;;;;8.53;54.29004;966.936;;;;
2020/01/24 12:44:26;;;;;;;34.8;23;;;;;;;8.89;53.45996;966.9255;;;;
2020/01/24 12:46:51;;;;;;;36;23.4;;;;;;;8.99;53.20313;966.8649;;;;
2020/01/24 12:49:16;;;;;;;34;23.4;;;;;;;8.75;53.88574;966.7907;;;;
2020/01/24 12:51:41;;;;;;;30.5;21.7;;;;;;;8.96;53.32813;966.7488;;;;
2020/01/24 12:54:32;;;;;;;33.7;23.1;;;;;;;9.02;53.41797;966.7246;;;;
2020/01/24 12:56:49;;;;;;;35.9;22.2;;;;;;;9.19;52.9375;966.7143;;;;
2020/01/24 12:59:14;;;;;;;33.2;21.8;;;;;;;9.41;52.67188;966.6283;;;;
2020/01/24 13:01:59;;;;;;;31;21.2;;;;;;;9.8;51.8418;966.5506;;;;
2020/01/24 13:04:23;;;;;;;32.6;21.3;;;;;;;10;51.64258;966.5208;;;;
2020/01/24 13:06:49;;;;;;;30.5;20.6;;;;;;;10.01;51.32813;966.5028;;;;
2020/01/24 13:09:15;;;;;;;34.9;20.7;;;;;;;9.84;51.6709;966.534;;;;
2020/01/24 13:11:51;;;;;;;29;21;;;;;;;9.93;51.87988;966.5214;;;;
2020/01/24 13:14:22;;;;;;;32.7;21.3;;;;;;;9.94;52.03418;966.4986;;;;
2020/01/24 13:16:48;;;;;;;31.5;20.3;;;;;;;10.07;51.80371;966.5044;;;;
2020/01/24 13:19:05;;;;;;;31;20.5;;;;;;;10.18;51.50098;966.4761;;;;
2020/01/24 13:21:30;;;;;;;32.3;20.3;;;;;;;10.42;51.16602;966.4735;;;;
2020/01/24 13:23:55;;;;;;;35.5;20.5;;;;;;;10.46;51.29883;966.4844;;;;
2020/01/24 13:26:23;;;;;;;34.7;20.4;;;;;;;10.48;51.20801;966.4666;;;;
2020/01/24 13:28:48;;;;;;;26.7;17.7;;;;;;;10.47;51.24219;966.454;;;;
2020/01/24 13:31:29;;;;;;;28.3;18.8;;;;;;;10.44;51.64844;966.426;;;;
2020/01/24 13:33:56;;;;;;;26.1;17.6;;;;;;;10.61;51.83398;966.3925;;;;
2020/01/24 13:36:21;;;;;;;31.9;16;;;;;;;10.69;51.65527;966.3683;;;;
2020/01/24 13:38:46;;;;;;;35.6;17.3;;;;;;;10.65;51.82617;966.3308;;;;
2020/01/24 13:41:24;;;;;;;35.6;16;;;;;;;10.84;52.23535;966.345;;;;
2020/01/24 13:43:49;;;;;;;21.7;15.2;;;;;;;10.78;51.73633;966.3629;;;;
2020/01/24 13:46:27;;;;;;;26.5;15.1;;;;;;;10.93;51.94141;966.3636;;;;
2020/01/24 13:48:52;;;;;;;24;15.3;;;;;;;11.08;51.2793;966.4005;;;;
2020/01/24 13:51:30;;;;;;;27.1;15.8;;;;;;;11.16;51.03125;966.3922;;;;
2020/01/24 13:53:55;;;;;;;24.6;15.5;;;;;;;11.17;50.94922;966.3684;;;;
2020/01/24 13:56:20;;;;;;;23.3;15.2;;;;;;;11.18;51.19727;966.3016;;;;
2020/01/24 13:58:45;;;;;;;29.1;16.1;;;;;;;11.18;52.05469;966.3094;;;;
2020/01/24 14:01:25;;;;;;;25.8;15.8;;;;;;;11.18;51.23242;966.3109;;;;
2020/01/24 14:03:51;;;;;;;27.5;16.3;;;;;;;11.18;50.98535;966.262;;;;
2020/01/24 14:06:29;;;;;;;27.1;17.4;;;;;;;11.02;51.64844;966.3409;;;;
2020/01/24 14:08:54;;;;;;;27.2;16.7;;;;;;;10.97;51.39551;966.3546;;;;
2020/01/24 14:11:28;;;;;;;27.1;17;;;;;;;11.05;51.40527;966.2888;;;;
2020/01/24 14:13:54;;;;;;;26.1;16.4;;;;;;;11.03;51.37891;966.2807;;;;
2020/01/24 14:16:19;;;;;;;29;19.2;;;;;;;10.94;51.41504;966.2498;;;;
2020/01/24 14:18:44;;;;;;;27.1;17.9;;;;;;;11.05;51.44043;966.2431;;;;
2020/01/24 14:21:09;;;;;;;26.8;16.8;;;;;;;10.95;51.5791;966.2511;;;;
2020/01/24 14:23:34;;;;;;;27.7;17.4;;;;;;;10.78;51.91211;966.2622;;;;
2020/01/24 14:25:59;;;;;;;33.9;21.4;;;;;;;10.68;52.19238;966.2587;;;;
2020/01/24 14:28:33;;;;;;;31.4;18.6;;;;;;;10.61;52.73633;966.2899;;;;
2020/01/24 14:30:58;;;;;;;30.4;19.6;;;;;;;10.59;52.42773;966.3102;;;;